Time;durP1;ratioP1;P1;durP2;ratioP2;P2;SDS_P1;SDS_P2;PMS_P1;PMS_P2;Temp;Humidity;BMP_temperature;BMP_pressure;BME280_temperature;BME280_humidity;BME280_pressure;Samples;Min_cycle;Max_cycle;Signal;HPM_P1;HPM_P2
2021/09/22 00:02:17;;;;;;;3.60;1.23;;;12.50;99.90;;;;;;5071079;28;20419;-58
2021/09/22 00:04:49;;;;;;;2.08;1.50;;;12.50;99.90;;;;;;5072106;28;20428;-58
2021/09/22 00:07:17;;;;;;;2.33;1.70;;;12.60;99.90;;;;;;5075053;28;20423;-58
2021/09/22 00:09:44;;;;;;;3.10;2.10;;;12.60;99.90;;;;;;5074850;28;20700;-57
2021/09/22 00:12:14;;;;;;;2.38;1.50;;;12.60;99.90;;;;;;5074178;28;20811;-58
2021/09/22 00:14:45;;;;;;;2.10;1.40;;;12.60;99.90;;;;;;5075269;28;20447;-57
2021/09/22 00:17:18;;;;;;;2.30;1.50;;;12.60;99.90;;;;;;5075994;28;20427;-57
2021/09/22 00:19:47;;;;;;;2.30;1.60;;;12.60;99.90;;;;;;5075865;28;20411;-58
2021/09/22 00:22:14;;;;;;;2.88;1.65;;;12.50;99.90;;;;;;5075402;28;20493;-57
2021/09/22 00:24:42;;;;;;;2.53;1.53;;;12.50;99.90;;;;;;5075665;28;20431;-57
2021/09/22 00:27:10;;;;;;;1.83;1.40;;;12.60;99.90;;;;;;5076457;28;20433;-57
2021/09/22 00:29:40;;;;;;;2.28;1.50;;;12.60;99.90;;;;;;5076805;28;20455;-53
2021/09/22 00:32:08;;;;;;;2.08;1.60;;;12.50;99.90;;;;;;5076373;28;20906;-57
2021/09/22 00:34:36;;;;;;;2.60;1.80;;;12.40;99.90;;;;;;5075541;28;20425;-57
2021/09/22 00:37:07;;;;;;;6.20;1.88;;;12.30;99.90;;;;;;5076101;28;20427;-56
2021/09/22 00:39:35;;;;;;;3.03;1.57;;;12.30;99.90;;;;;;5075909;28;20782;-57
2021/09/22 00:42:05;;;;;;;2.70;1.90;;;12.30;99.90;;;;;;5076681;28;20428;-56
2021/09/22 00:44:46;;;;;;;2.90;1.70;;;12.30;99.90;;;;;;5077432;28;20427;-54
2021/09/22 00:47:16;;;;;;;1.80;1.30;;;12.30;99.90;;;;;;5076754;28;20431;-57
2021/09/22 00:49:48;;;;;;;2.78;1.60;;;12.30;99.90;;;;;;5077387;28;20494;-55
2021/09/22 00:52:18;;;;;;;2.15;1.27;;;12.30;99.90;;;;;;5077231;28;20431;-58
2021/09/22 00:54:46;;;;;;;2.40;1.70;;;12.30;99.90;;;;;;5077854;28;20438;-56
2021/09/22 00:57:21;;;;;;;2.35;1.40;;;12.40;99.90;;;;;;5076950;28;20769;-57
2021/09/22 00:59:49;;;;;;;2.40;1.60;;;12.30;99.90;;;;;;5078169;28;20415;-57
2021/09/22 01:02:16;;;;;;;2.40;1.50;;;12.30;99.90;;;;;;5077177;28;20427;-56
2021/09/22 01:04:47;;;;;;;3.00;1.60;;;12.20;99.90;;;;;;5076562;28;20431;-56
2021/09/22 01:07:16;;;;;;;2.40;1.40;;;12.20;99.90;;;;;;5076192;28;20462;-57
2021/09/22 01:09:49;;;;;;;1.88;1.40;;;12.20;99.90;;;;;;5075573;28;20424;-57
2021/09/22 01:12:17;;;;;;;2.42;1.60;;;12.20;99.90;;;;;;5074760;28;20805;-57
2021/09/22 01:14:45;;;;;;;2.93;2.03;;;12.10;99.90;;;;;;5072236;28;20517;-58
2021/09/22 01:17:12;;;;;;;5.22;1.70;;;12.10;99.90;;;;;;5072371;28;20443;-56
2021/09/22 01:19:41;;;;;;;2.60;1.60;;;12.10;99.90;;;;;;5071912;28;20769;-57
2021/09/22 01:22:12;;;;;;;4.35;1.65;;;12.10;99.90;;;;;;5073059;28;20423;-57
2021/09/22 01:24:39;;;;;;;2.10;1.60;;;12.00;99.90;;;;;;5073936;28;20454;-56
2021/09/22 01:27:06;;;;;;;2.60;1.90;;;12.10;99.90;;;;;;5073990;28;20477;-57
2021/09/22 01:29:35;;;;;;;2.30;1.40;;;12.00;99.90;;;;;;5076737;28;20519;-57
2021/09/22 01:32:03;;;;;;;2.40;1.63;;;12.10;99.90;;;;;;5077046;28;20423;-57
2021/09/22 01:34:31;;;;;;;3.10;1.80;;;12.10;99.90;;;;;;5077283;28;20481;-57
2021/09/22 01:36:58;;;;;;;2.10;1.52;;;12.00;99.90;;;;;;5076830;28;20481;-57
2021/09/22 01:39:27;;;;;;;2.03;1.45;;;11.90;99.90;;;;;;5076666;28;20454;-57
2021/09/22 01:41:55;;;;;;;2.60;1.60;;;11.90;99.90;;;;;;5076864;28;20427;-58
2021/09/22 01:44:23;;;;;;;2.80;1.90;;;11.80;99.90;;;;;;5075228;28;20434;-55
2021/09/22 01:46:50;;;;;;;2.80;1.67;;;11.90;99.90;;;;;;5076123;28;20435;-57
2021/09/22 01:49:26;;;;;;;2.33;1.73;;;11.90;99.90;;;;;;5076222;28;20461;-57
2021/09/22 01:51:58;;;;;;;3.40;1.50;;;11.80;99.90;;;;;;5075517;28;20497;-57
2021/09/22 01:54:27;;;;;;;2.28;1.48;;;11.70;99.90;;;;;;5076293;28;20428;-56
2021/09/22 01:56:55;;;;;;;2.92;1.80;;;11.60;99.90;;;;;;5076379;28;20419;-55
2021/09/22 01:59:23;;;;;;;2.50;1.52;;;11.50;99.90;;;;;;5076441;28;20432;-52
2021/09/22 02:01:50;;;;;;;3.67;1.80;;;11.60;99.90;;;;;;5074665;28;20423;-56
2021/09/22 02:04:18;;;;;;;4.00;1.60;;;11.60;99.90;;;;;;5075088;28;20431;-57
2021/09/22 02:06:45;;;;;;;2.80;1.70;;;11.70;99.90;;;;;;5074932;28;20501;-55
2021/09/22 02:09:12;;;;;;;2.53;1.70;;;11.80;99.90;;;;;;5073703;28;20432;-58
2021/09/22 02:11:41;;;;;;;3.17;1.73;;;11.80;99.90;;;;;;5074130;28;20818;-56
2021/09/22 02:14:09;;;;;;;3.07;1.60;;;11.80;99.90;;;;;;5075309;28;20827;-56
2021/09/22 02:16:36;;;;;;;2.53;1.40;;;11.90;99.90;;;;;;5074053;28;20781;-57
2021/09/22 02:19:03;;;;;;;2.65;1.60;;;11.90;99.90;;;;;;5075750;28;20427;-57
2021/09/22 02:21:31;;;;;;;2.70;1.50;;;11.80;99.90;;;;;;5075262;28;20419;-58
2021/09/22 02:23:58;;;;;;;1.90;1.60;;;11.80;99.90;;;;;;5076149;28;20896;-57
2021/09/22 02:26:26;;;;;;;2.35;1.40;;;11.80;99.90;;;;;;5075935;28;20486;-56
2021/09/22 02:28:55;;;;;;;2.13;1.63;;;11.70;99.90;;;;;;5075802;28;20431;-55
2021/09/22 02:31:22;;;;;;;2.60;1.70;;;11.70;99.90;;;;;;5074320;28;20428;-56
2021/09/22 02:33:51;;;;;;;2.03;1.80;;;11.70;99.90;;;;;;5073740;28;20428;-57
2021/09/22 02:36:19;;;;;;;2.95;1.90;;;11.70;99.90;;;;;;5073522;28;20501;-57
2021/09/22 02:38:46;;;;;;;2.25;1.42;;;11.60;99.90;;;;;;5074452;28;20770;-57
2021/09/22 02:41:14;;;;;;;1.73;1.42;;;11.60;99.90;;;;;;5074102;28;20473;-57
2021/09/22 02:43:41;;;;;;;2.40;1.70;;;11.60;99.90;;;;;;5074577;28;20427;-56
2021/09/22 02:46:10;;;;;;;2.50;1.80;;;11.70;99.90;;;;;;5075514;28;20489;-56
2021/09/22 02:48:37;;;;;;;2.70;1.60;;;11.70;99.90;;;;;;5074474;28;20427;-57
2021/09/22 02:51:05;;;;;;;2.17;1.73;;;11.60;99.90;;;;;;5075099;28;20427;-56
2021/09/22 02:53:33;;;;;;;2.90;1.85;;;11.60;99.90;;;;;;5075101;28;20538;-56
2021/09/22 02:56:00;;;;;;;2.40;1.90;;;11.60;99.90;;;;;;5075681;28;20649;-57
2021/09/22 02:58:28;;;;;;;3.00;1.70;;;11.60;99.90;;;;;;5073580;28;20431;-56
2021/09/22 03:00:57;;;;;;;3.03;2.10;;;11.50;99.90;;;;;;5073267;28;20424;-56
2021/09/22 03:03:26;;;;;;;3.50;2.20;;;11.60;99.90;;;;;;5073845;28;20490;-57
2021/09/22 03:05:53;;;;;;;2.80;1.70;;;11.50;99.90;;;;;;5072144;28;20496;-55
2021/09/22 03:08:20;;;;;;;2.00;1.60;;;11.50;99.90;;;;;;5073943;28;20424;-57
2021/09/22 03:10:48;;;;;;;2.17;1.60;;;11.50;99.90;;;;;;5073776;28;20419;-56
2021/09/22 03:13:15;;;;;;;2.42;1.60;;;11.60;99.90;;;;;;5074343;28;20435;-55
2021/09/22 03:15:43;;;;;;;3.00;1.80;;;11.60;99.90;;;;;;5074428;28;20465;-58
2021/09/22 03:18:10;;;;;;;2.88;1.80;;;11.50;99.90;;;;;;5073555;28;20428;-56
2021/09/22 03:20:39;;;;;;;2.87;1.87;;;11.50;99.90;;;;;;5075127;28;20419;-56
2021/09/22 03:23:07;;;;;;;3.03;1.80;;;11.50;99.90;;;;;;5074298;28;20428;-56
2021/09/22 03:25:34;;;;;;;2.80;1.80;;;11.50;99.90;;;;;;5073264;28;20432;-57
2021/09/22 03:28:01;;;;;;;3.42;1.90;;;11.50;99.90;;;;;;5073369;28;20431;-57
2021/09/22 03:30:29;;;;;;;3.17;2.00;;;11.50;99.90;;;;;;5073225;28;20503;-56
2021/09/22 03:32:56;;;;;;;2.63;1.80;;;11.50;99.90;;;;;;5073185;28;20422;-56
2021/09/22 03:35:24;;;;;;;3.00;1.60;;;11.50;99.90;;;;;;5072639;28;20799;-55
2021/09/22 03:37:53;;;;;;;2.38;1.60;;;11.50;99.90;;;;;;5072570;28;20424;-56
2021/09/22 03:40:20;;;;;;;2.50;1.70;;;11.50;99.90;;;;;;5072307;28;20477;-54
2021/09/22 03:42:48;;;;;;;2.60;1.80;;;11.60;99.90;;;;;;5072264;28;20420;-57
2021/09/22 03:45:15;;;;;;;2.53;1.80;;;11.50;99.90;;;;;;5072059;28;20424;-55
2021/09/22 03:47:43;;;;;;;4.00;3.08;;;11.60;99.90;;;;;;5073499;28;20430;-52
2021/09/22 03:50:11;;;;;;;2.70;2.30;;;11.50;99.90;;;;;;5073410;28;20478;-56
2021/09/22 03:52:39;;;;;;;2.80;1.73;;;11.50;99.90;;;;;;5072981;28;20427;-56
2021/09/22 03:55:08;;;;;;;2.45;1.92;;;11.50;99.90;;;;;;5073424;28;20477;-57
2021/09/22 03:57:36;;;;;;;4.57;1.95;;;11.60;99.90;;;;;;5073232;28;20894;-57
2021/09/22 04:00:05;;;;;;;3.20;1.80;;;11.80;99.90;;;;;;5072753;28;20431;-58
2021/09/22 04:02:33;;;;;;;3.85;2.10;;;11.90;99.90;;;;;;5072231;28;20426;-57
2021/09/22 04:05:00;;;;;;;2.72;1.67;;;11.90;99.90;;;;;;5071080;28;20466;-58
2021/09/22 04:07:28;;;;;;;2.30;1.63;;;11.90;99.90;;;;;;5071147;28;20555;-58
2021/09/22 04:09:55;;;;;;;2.92;2.17;;;12.00;99.90;;;;;;5072752;28;20500;-58
2021/09/22 04:12:24;;;;;;;2.85;2.05;;;12.00;99.90;;;;;;5071740;28;20476;-57
2021/09/22 04:14:53;;;;;;;3.92;1.83;;;12.00;99.90;;;;;;5071538;28;20700;-58
2021/09/22 04:17:20;;;;;;;2.20;1.70;;;12.20;99.90;;;;;;5071589;28;20878;-58
2021/09/22 04:19:48;;;;;;;4.28;1.92;;;12.30;99.90;;;;;;5073069;28;20427;-57
2021/09/22 04:22:16;;;;;;;3.00;1.98;;;12.40;99.90;;;;;;5072540;28;20481;-59
2021/09/22 04:24:44;;;;;;;3.45;2.10;;;12.40;99.90;;;;;;5078726;28;20795;-59
2021/09/22 04:27:11;;;;;;;2.80;2.00;;;12.30;99.90;;;;;;5074223;28;20428;-59
2021/09/22 04:29:42;;;;;;;4.13;1.95;;;12.30;99.90;;;;;;5074821;28;20508;-59
2021/09/22 04:32:09;;;;;;;3.45;1.92;;;12.40;99.90;;;;;;5074153;28;20457;-59
2021/09/22 04:34:37;;;;;;;2.90;1.95;;;12.50;99.90;;;;;;5074591;28;20484;-59
2021/09/22 04:37:05;;;;;;;3.50;1.60;;;12.90;99.90;;;;;;5082273;28;20422;-59
2021/09/22 04:39:32;;;;;;;2.10;1.40;;;13.20;99.90;;;;;;5088940;28;20505;-59
2021/09/22 04:42:00;;;;;;;3.53;1.92;;;13.30;99.90;;;;;;5077469;28;20485;-59
2021/09/22 04:44:27;;;;;;;3.33;2.40;;;13.40;99.90;;;;;;5072985;28;20439;-60
2021/09/22 04:46:56;;;;;;;2.20;1.80;;;13.50;99.90;;;;;;5081841;28;20779;-58
2021/09/22 04:49:24;;;;;;;4.47;2.28;;;13.50;99.90;;;;;;5087226;28;20487;-57
2021/09/22 04:51:51;;;;;;;3.90;1.70;;;13.50;99.90;;;;;;5092839;28;20509;-59
2021/09/22 04:54:18;;;;;;;3.22;1.90;;;13.60;99.90;;;;;;5085193;28;20793;-59
2021/09/22 04:56:46;;;;;;;2.78;1.80;;;13.70;99.90;;;;;;5076033;28;20848;-59
2021/09/22 04:59:13;;;;;;;2.95;1.92;;;13.80;99.90;;;;;;5084997;28;20457;-59
2021/09/22 05:01:41;;;;;;;2.60;1.70;;;13.80;99.90;;;;;;5077043;28;20569;-59
2021/09/22 05:04:10;;;;;;;3.50;2.20;;;13.90;99.90;;;;;;5077347;28;20439;-59
2021/09/22 05:06:37;;;;;;;3.40;1.80;;;13.90;99.90;;;;;;5076323;28;20463;-59
2021/09/22 05:09:05;;;;;;;4.03;2.65;;;13.90;99.90;;;;;;5075649;28;20916;-59
2021/09/22 05:11:32;;;;;;;3.05;2.03;;;13.90;99.90;;;;;;5073229;28;20419;-59
2021/09/22 05:14:00;;;;;;;3.87;2.50;;;13.90;99.90;;;;;;5072632;28;20520;-58
2021/09/22 05:16:27;;;;;;;3.10;1.70;;;13.90;99.90;;;;;;5071252;28;21024;-58
2021/09/22 05:18:55;;;;;;;3.80;2.10;;;13.90;99.90;;;;;;5071000;28;20427;-59
2021/09/22 05:21:24;;;;;;;3.33;2.08;;;13.90;99.90;;;;;;5071133;28;20424;-59
2021/09/22 05:23:53;;;;;;;3.28;2.15;;;13.60;99.90;;;;;;5072089;28;20427;-59
2021/09/22 05:26:29;;;;;;;5.37;3.13;;;13.60;99.90;;;;;;5072145;28;20477;-59
2021/09/22 05:29:08;;;;;;;4.47;2.40;;;13.40;99.90;;;;;;5072963;28;20486;-58
2021/09/22 05:31:40;;;;;;;4.13;2.30;;;13.10;99.90;;;;;;5072518;28;20423;-59
2021/09/22 05:34:32;;;;;;;4.43;2.25;;;13.20;99.90;;;;;;5073910;28;20427;-59
2021/09/22 05:37:14;;;;;;;3.10;2.00;;;13.20;99.90;;;;;;5073493;28;20419;-59
2021/09/22 05:40:25;;;;;;;;;;;;;;;;;;;;;
2021/09/22 05:43:42;;;;;;;4.63;2.57;;;13.40;99.90;;;;;;5037731;28;20415;-58
2021/09/22 05:46:36;;;;;;;2.93;2.40;;;13.60;99.90;;;;;;5072895;28;20435;-58
2021/09/22 05:49:30;;;;;;;4.78;2.75;;;13.70;99.90;;;;;;5084910;28;20724;-58
2021/09/22 05:52:23;;;;;;;3.45;2.20;;;13.80;99.90;;;;;;5094409;28;20439;-58
2021/09/22 05:54:52;;;;;;;4.20;2.80;;;13.90;99.90;;;;;;5089575;28;20417;-58
2021/09/22 05:57:46;;;;;;;3.60;2.13;;;13.90;99.90;;;;;;5082899;28;20427;-58
2021/09/22 06:00:19;;;;;;;3.10;2.10;;;13.90;99.90;;;;;;5072084;28;20419;-58
2021/09/22 06:02:54;;;;;;;2.97;1.98;;;14.00;99.90;;;;;;5072425;28;20424;-58
2021/09/22 06:05:53;;;;;;;5.07;2.65;;;13.70;99.90;;;;;;5070077;28;20470;-58
2021/09/22 06:08:27;;;;;;;2.38;2.10;;;13.60;99.90;;;;;;5072684;28;20916;-58
2021/09/22 06:11:01;;;;;;;4.80;3.30;;;13.70;99.90;;;;;;5073045;28;20735;-58
2021/09/22 06:13:33;;;;;;;3.88;2.50;;;13.60;99.90;;;;;;5078282;28;20432;-58
2021/09/22 06:16:09;;;;;;;3.70;2.28;;;13.40;99.90;;;;;;5089224;28;20433;-58
2021/09/22 06:18:52;;;;;;;4.85;3.40;;;13.50;99.90;;;;;;5092903;28;20428;-58
2021/09/22 06:21:33;;;;;;;5.50;2.47;;;13.10;99.90;;;;;;5093328;28;20437;-57
2021/09/22 06:24:25;;;;;;;3.60;2.70;;;12.90;99.90;;;;;;5081842;28;20424;-52
2021/09/22 06:27:05;;;;;;;4.50;2.80;;;12.80;99.90;;;;;;5083857;28;20825;-56
2021/09/22 06:33:10;;;;;;;4.97;3.45;;;12.90;99.90;;;;;;5077213;28;20494;-56
2021/09/22 06:35:43;;;;;;;4.43;2.70;;;12.70;99.90;;;;;;5080687;28;20439;-55
2021/09/22 06:38:14;;;;;;;3.70;3.13;;;12.70;99.90;;;;;;5090140;28;20426;-56
2021/09/22 06:41:04;;;;;;;5.32;3.05;;;12.60;99.90;;;;;;5087472;28;20453;-57
2021/09/22 06:43:42;;;;;;;4.50;2.47;;;12.70;99.90;;;;;;5086097;28;20422;-57
2021/09/22 06:46:26;;;;;;;5.45;4.35;;;13.10;99.90;;;;;;5086107;28;21008;-56
2021/09/22 06:49:07;;;;;;;5.45;3.88;;;13.20;99.90;;;;;;5089165;28;20718;-55
2021/09/22 06:51:39;;;;;;;6.25;4.00;;;13.10;99.90;;;;;;5089359;28;20490;-57
2021/09/22 06:54:18;;;;;;;5.85;3.60;;;12.80;99.90;;;;;;5090699;28;20856;-57
2021/09/22 06:56:57;;;;;;;5.20;4.07;;;12.60;99.90;;;;;;5090347;28;20430;-58
2021/09/22 06:59:29;;;;;;;5.80;4.10;;;12.40;99.90;;;;;;5089564;28;20721;-57
2021/09/22 07:02:12;;;;;;;5.38;3.33;;;12.40;99.90;;;;;;5089937;28;20495;-56
2021/09/22 07:04:42;;;;;;;4.90;3.00;;;12.40;99.90;;;;;;5088610;28;20413;-57
2021/09/22 07:07:18;;;;;;;4.45;3.15;;;13.00;99.90;;;;;;5090222;28;20476;-57
2021/09/22 07:09:47;;;;;;;4.70;3.28;;;13.20;99.90;;;;;;5087919;28;20826;-54
2021/09/22 07:12:40;;;;;;;4.85;3.03;;;13.50;99.90;;;;;;5090090;28;20422;-63
2021/09/22 07:15:33;;;;;;;6.10;3.60;;;13.70;99.90;;;;;;5092136;28;20432;-63
2021/09/22 07:18:46;;;;;;;7.45;4.57;;;13.70;99.90;;;;;;5091497;28;20424;-61
2021/09/22 07:21:34;;;;;;;10.60;4.82;;;13.70;99.90;;;;;;5091448;28;20851;-59
2021/09/22 07:24:25;;;;;;;7.00;4.47;;;13.50;99.90;;;;;;5090886;28;20429;-60
2021/09/22 07:27:19;;;;;;;7.50;4.00;;;13.40;99.90;;;;;;5090859;28;20650;-59
2021/09/22 07:32:48;;;;;;;8.43;5.13;;;13.40;99.90;;;;;;5092328;28;20488;-61
2021/09/22 07:38:26;;;;;;;6.75;4.40;;;13.50;99.90;;;;;;5090975;28;20393;-61
2021/09/22 07:41:10;;;;;;;9.60;6.10;;;13.80;99.90;;;;;;5086428;28;20428;-61
2021/09/22 07:43:43;;;;;;;7.43;5.50;;;13.90;99.90;;;;;;5087796;28;21007;-62
2021/09/22 07:46:28;;;;;;;7.20;4.90;;;13.90;99.90;;;;;;5088947;28;20487;-60
2021/09/22 07:52:18;;;;;;;20.70;14.63;;;14.50;99.90;;;;;;5089601;28;20499;-60
2021/09/22 07:55:09;;;;;;;7.90;3.90;;;14.70;99.90;;;;;;5092104;28;20414;-60
2021/09/22 07:58:07;;;;;;;6.50;5.32;;;15.00;99.90;;;;;;5090594;28;20815;-63
2021/09/22 08:00:42;;;;;;;8.50;4.95;;;14.70;99.90;;;;;;5091174;28;20421;-60
2021/09/22 08:03:15;;;;;;;7.32;5.00;;;14.40;99.90;;;;;;5091302;28;20406;-61
2021/09/22 08:08:40;;;;;;;6.90;4.97;;;14.60;99.90;;;;;;5092835;28;20441;-60
2021/09/22 08:11:24;;;;;;;6.60;4.97;;;14.70;99.90;;;;;;5092538;28;20450;-59
2021/09/22 08:14:04;;;;;;;6.85;4.55;;;14.80;99.90;;;;;;5091043;28;20421;-60
2021/09/22 08:16:44;;;;;;;7.65;5.28;;;14.80;99.90;;;;;;5089894;28;20512;-60
2021/09/22 08:22:05;;;;;;;7.75;4.50;;;15.40;99.90;;;;;;5090340;28;20410;-61
2021/09/22 08:27:57;;;;;;;7.35;4.15;;;15.90;99.90;;;;;;5091936;28;20434;-58
2021/09/22 08:30:49;;;;;;;8.50;5.20;;;15.90;99.90;;;;;;5094872;28;20482;-57
2021/09/22 08:33:29;;;;;;;6.18;4.57;;;15.60;99.90;;;;;;5091816;28;20421;-56
2021/09/22 08:36:12;;;;;;;5.70;4.38;;;15.40;99.90;;;;;;5094126;28;20720;-57
2021/09/22 08:38:43;;;;;;;7.78;5.50;;;15.50;99.90;;;;;;5094508;28;20421;-58
2021/09/22 08:41:16;;;;;;;7.40;5.37;;;15.20;99.90;;;;;;5091623;28;20416;-58
2021/09/22 08:43:52;;;;;;;5.40;3.60;;;15.00;99.90;;;;;;5091259;28;20734;-58
2021/09/22 08:46:26;;;;;;;6.30;4.10;;;14.80;99.90;;;;;;5089599;28;20421;-56
2021/09/22 08:49:05;;;;;;;5.35;3.05;;;14.90;99.90;;;;;;5089081;28;20425;-57
2021/09/22 08:54:47;;;;;;;3.78;2.40;;;15.60;99.90;;;;;;5089902;28;20461;-57
2021/09/22 08:57:24;;;;;;;4.80;3.10;;;16.00;99.90;;;;;;5090684;28;20417;-58
2021/09/22 08:59:56;;;;;;;3.70;2.45;;;16.50;99.90;;;;;;5092003;28;20433;-59
2021/09/22 09:02:53;;;;;;;3.70;2.17;;;16.90;99.90;;;;;;5093006;28;20483;-57
2021/09/22 09:08:40;;;;;;;4.57;3.00;;;16.90;99.90;;;;;;5076404;28;20869;-57
2021/09/22 09:14:18;;;;;;;3.20;2.10;;;16.60;99.90;;;;;;5091642;28;20424;-57
2021/09/22 09:17:11;;;;;;;5.00;2.30;;;17.00;99.90;;;;;;5092811;28;20417;-58
2021/09/22 09:19:49;;;;;;;3.80;2.30;;;17.40;99.90;;;;;;5093094;28;20410;-57
2021/09/22 09:22:30;;;;;;;4.88;3.03;;;17.70;99.90;;;;;;5095268;28;20881;-58
2021/09/22 09:25:28;;;;;;;3.53;2.45;;;17.80;99.90;;;;;;5089989;28;20418;-59
2021/09/22 09:28:30;;;;;;;2.53;1.90;;;18.00;99.90;;;;;;5093516;28;20442;-61
2021/09/22 09:31:21;;;;;;;2.60;1.65;;;18.10;99.90;;;;;;5094791;28;20422;-57
2021/09/22 09:34:08;;;;;;;4.38;1.95;;;18.10;99.90;;;;;;5094343;28;20802;-58
2021/09/22 09:36:45;;;;;;;2.70;1.60;;;17.90;99.90;;;;;;5096247;28;20425;-54
2021/09/22 09:39:23;;;;;;;1.98;1.30;;;18.10;99.90;;;;;;5093859;28;20910;-57
2021/09/22 09:41:59;;;;;;;3.05;1.90;;;18.00;99.90;;;;;;5094630;28;20485;-51
2021/09/22 09:44:40;;;;;;;2.50;1.30;;;18.00;99.90;;;;;;5095626;28;20418;-58
2021/09/22 09:47:18;;;;;;;2.28;1.38;;;18.10;99.90;;;;;;5095686;28;20817;-59
2021/09/22 09:50:01;;;;;;;3.40;1.98;;;18.50;99.90;;;;;;5094864;28;20471;-60
2021/09/22 09:52:56;;;;;;;2.50;1.55;;;18.60;99.90;;;;;;5095447;28;20438;-59
2021/09/22 09:55:44;;;;;;;1.70;1.10;;;18.70;99.90;;;;;;5093943;28;20864;-59
2021/09/22 09:58:14;;;;;;;1.90;1.40;;;18.60;99.90;;;;;;5091367;28;20438;-59
2021/09/22 10:00:49;;;;;;;1.93;1.10;;;18.60;99.90;;;;;;5094086;28;20775;-60
2021/09/22 10:03:34;;;;;;;2.65;1.40;;;18.70;99.90;;;;;;5094118;28;20840;-59
2021/09/22 10:06:22;;;;;;;2.00;1.10;;;18.80;99.90;;;;;;5093329;28;20848;-59
2021/09/22 10:08:56;;;;;;;2.00;1.40;;;18.90;99.90;;;;;;5093712;28;20437;-60
2021/09/22 10:11:45;;;;;;;1.60;1.38;;;19.20;99.90;;;;;;5094301;28;20417;-59
2021/09/22 10:14:35;;;;;;;1.60;1.20;;;19.60;99.90;;;;;;5092953;28;20426;-60
2021/09/22 10:17:21;;;;;;;1.60;1.30;;;19.60;99.90;;;;;;5092098;28;20733;-60
2021/09/22 10:19:54;;;;;;;3.05;1.20;;;19.60;99.90;;;;;;5089635;28;20440;-60
2021/09/22 10:22:31;;;;;;;2.47;1.67;;;19.70;99.90;;;;;;5089385;28;20421;-60
2021/09/22 10:25:26;;;;;;;4.18;1.30;;;19.50;99.90;;;;;;5090633;28;20433;-61
2021/09/22 10:28:04;;;;;;;2.40;1.50;;;19.60;99.90;;;;;;5090922;28;20477;-59
2021/09/22 10:30:43;;;;;;;1.60;1.30;;;19.70;99.90;;;;;;5089045;28;20435;-59
2021/09/22 10:33:29;;;;;;;1.90;1.30;;;19.60;99.90;;;;;;5069209;28;20704;-59
2021/09/22 10:36:17;;;;;;;1.60;1.35;;;19.80;99.90;;;;;;5065312;28;20431;-59
2021/09/22 10:41:52;;;;;;;2.15;1.50;;;20.20;99.90;;;;;;5072577;28;20419;-60
2021/09/22 10:44:38;;;;;;;1.63;1.20;;;20.20;99.90;;;;;;5066815;28;20419;-59
2021/09/22 10:47:32;;;;;;;1.92;1.20;;;19.90;99.90;;;;;;5070607;28;20419;-60
2021/09/22 10:50:15;;;;;;;1.60;1.00;;;19.80;99.90;;;;;;5070453;28;20446;-60
2021/09/22 10:52:46;;;;;;;1.60;1.07;;;20.10;99.90;;;;;;5070051;28;20915;-60
2021/09/22 10:55:34;;;;;;;1.60;1.00;;;20.60;99.90;;;;;;5071330;28;20830;-60
2021/09/22 10:58:36;;;;;;;2.20;1.20;;;20.90;99.90;;;;;;5070254;28;20439;-60
2021/09/22 11:01:36;;;;;;;2.63;0.95;;;21.30;99.90;;;;;;5071984;28;20439;-60
2021/09/22 11:04:08;;;;;;;1.90;1.00;;;21.40;99.90;;;;;;5070739;28;20426;-60
2021/09/22 11:09:54;;;;;;;1.58;1.00;;;21.10;99.90;;;;;;5071351;28;20424;-60
2021/09/22 11:12:43;;;;;;;1.50;0.90;;;21.20;99.90;;;;;;5072047;28;20691;-60
2021/09/22 11:15:25;;;;;;;1.58;0.90;;;20.60;99.90;;;;;;5072322;28;20710;-60
2021/09/22 11:17:53;;;;;;;1.45;0.90;;;20.70;99.90;;;;;;5070398;28;20424;-60
2021/09/22 11:20:31;;;;;;;1.20;0.90;;;21.00;99.90;;;;;;5067153;28;20427;-60
2021/09/22 11:23:08;;;;;;;1.10;0.80;;;20.80;99.90;;;;;;5070581;28;20459;-60
2021/09/22 11:25:45;;;;;;;1.65;0.90;;;20.90;99.90;;;;;;5069577;28;20423;-62
2021/09/22 11:28:16;;;;;;;1.08;0.80;;;21.00;99.90;;;;;;5070993;28;20447;-60
2021/09/22 11:30:55;;;;;;;1.05;0.73;;;21.10;99.90;;;;;;5091706;28;20716;-60
2021/09/22 11:33:30;;;;;;;1.50;0.70;;;21.30;99.90;;;;;;5091680;28;20768;-60
2021/09/22 11:36:16;;;;;;;1.90;0.80;;;21.40;99.90;;;;;;5092224;28;20695;-61
2021/09/22 11:38:46;;;;;;;1.10;0.70;;;21.20;99.90;;;;;;5091374;28;20418;-61
2021/09/22 11:41:20;;;;;;;0.90;0.60;;;21.50;99.90;;;;;;5092096;28;20464;-60
2021/09/22 11:43:53;;;;;;;1.10;0.60;;;21.80;99.90;;;;;;5090652;28;20509;-61
2021/09/22 11:46:36;;;;;;;10.73;1.13;;;22.10;99.90;;;;;;5088793;28;20565;-62
2021/09/22 11:49:12;;;;;;;3.38;0.80;;;21.90;99.90;;;;;;5089868;28;20807;-60
2021/09/22 11:52:16;;;;;;;1.30;0.85;;;22.10;99.90;;;;;;5070999;28;20415;-60
2021/09/22 11:54:58;;;;;;;3.08;0.70;;;21.80;99.90;;;;;;5070700;28;20424;-60
2021/09/22 11:57:43;;;;;;;1.05;0.80;;;22.10;99.90;;;;;;5071859;28;20464;-59
2021/09/22 12:00:19;;;;;;;2.47;0.80;;;21.60;99.90;;;;;;5072133;28;20739;-60
2021/09/22 12:02:53;;;;;;;3.20;0.70;;;21.80;99.90;;;;;;5073501;28;20423;-60
2021/09/22 12:05:25;;;;;;;1.70;0.70;;;21.90;99.90;;;;;;5075611;28;20872;-60
2021/09/22 12:08:16;;;;;;;3.10;0.70;;;21.80;99.90;;;;;;5072082;28;20494;-60
2021/09/22 12:10:48;;;;;;;2.78;0.70;;;21.60;99.90;;;;;;5073936;28;20451;-60
2021/09/22 12:13:21;;;;;;;1.70;0.70;;;21.60;99.90;;;;;;5072330;28;20427;-61
2021/09/22 12:16:00;;;;;;;1.00;0.60;;;21.70;99.90;;;;;;5072879;28;20459;-61
2021/09/22 12:18:32;;;;;;;0.90;0.70;;;21.80;99.90;;;;;;5073955;28;20415;-62
2021/09/22 12:21:08;;;;;;;1.10;0.60;;;21.50;99.90;;;;;;5071209;28;20446;-61
2021/09/22 12:23:40;;;;;;;1.00;0.60;;;21.50;99.90;;;;;;5072954;28;21159;-61
2021/09/22 12:26:31;;;;;;;0.80;0.60;;;21.60;99.90;;;;;;5072803;28;20424;-61
2021/09/22 12:29:10;;;;;;;1.00;0.70;;;21.70;99.90;;;;;;5072179;28;20843;-60
2021/09/22 12:31:40;;;;;;;0.90;0.70;;;21.60;99.90;;;;;;5071714;28;20430;-60
2021/09/22 12:34:20;;;;;;;2.15;0.60;;;21.10;99.90;;;;;;5071403;28;20424;-61
2021/09/22 12:36:58;;;;;;;0.88;0.60;;;21.30;99.90;;;;;;5072015;28;20434;-60
2021/09/22 12:39:35;;;;;;;0.90;0.70;;;21.30;99.90;;;;;;5073685;28;20423;-61
2021/09/22 12:42:07;;;;;;;1.00;0.80;;;21.50;99.90;;;;;;5073034;28;20419;-60
2021/09/22 12:44:57;;;;;;;1.10;0.80;;;21.50;99.90;;;;;;5074199;28;20415;-61
2021/09/22 12:47:28;;;;;;;1.10;0.80;;;21.70;99.90;;;;;;5072982;28;20419;-60
2021/09/22 12:50:30;;;;;;;1.00;0.80;;;21.70;99.90;;;;;;5071989;28;20518;-60
2021/09/22 12:53:18;;;;;;;1.20;0.80;;;21.80;99.90;;;;;;5072953;28;20515;-60
2021/09/22 12:55:54;;;;;;;0.90;0.60;;;21.80;99.90;;;;;;5073213;28;20435;-60
2021/09/22 12:58:30;;;;;;;1.10;0.80;;;21.70;99.90;;;;;;5073397;28;20464;-60
2021/09/22 13:01:15;;;;;;;1.90;0.90;;;21.60;99.90;;;;;;5073115;28;20530;-59
2021/09/22 13:03:54;;;;;;;0.93;0.80;;;21.30;99.90;;;;;;5071752;28;20462;-60
2021/09/22 13:06:36;;;;;;;1.20;0.70;;;20.90;99.90;;;;;;5073030;28;20435;-60
2021/09/22 13:09:11;;;;;;;1.80;0.80;;;20.70;99.90;;;;;;5073073;28;20434;-60
2021/09/22 13:11:40;;;;;;;1.67;0.80;;;20.60;99.90;;;;;;5073493;28;20855;-60
2021/09/22 13:14:10;;;;;;;2.55;0.80;;;20.70;99.90;;;;;;5073882;28;20439;-61
2021/09/22 13:16:41;;;;;;;1.00;0.70;;;20.70;99.90;;;;;;5076074;28;20436;-60
2021/09/22 13:19:12;;;;;;;2.60;0.80;;;20.50;99.90;;;;;;5075726;28;20419;-60
2021/09/22 13:21:42;;;;;;;1.25;0.80;;;20.50;99.90;;;;;;5075801;28;20431;-59
2021/09/22 13:24:13;;;;;;;1.50;0.90;;;20.50;99.90;;;;;;5074669;28;20711;-60
2021/09/22 13:26:46;;;;;;;2.20;0.80;;;20.10;99.90;;;;;;5073929;28;20450;-59
2021/09/22 13:29:16;;;;;;;0.90;0.60;;;19.80;99.90;;;;;;5074358;28;20839;-59
2021/09/22 13:31:46;;;;;;;1.20;0.70;;;19.90;99.90;;;;;;5073421;28;20484;-59
2021/09/22 13:34:14;;;;;;;1.20;0.80;;;19.80;99.90;;;;;;5073279;28;20901;-59
2021/09/22 13:36:42;;;;;;;1.35;0.80;;;19.60;99.90;;;;;;5073157;28;20520;-60
2021/09/22 13:39:14;;;;;;;2.20;0.90;;;19.70;99.90;;;;;;5073655;28;20821;-59
2021/09/22 13:41:43;;;;;;;1.10;0.70;;;19.80;99.90;;;;;;5073068;28;20431;-59
2021/09/22 13:44:11;;;;;;;1.20;0.80;;;20.10;99.90;;;;;;5073459;28;21008;-59
2021/09/22 13:46:44;;;;;;;1.00;0.75;;;20.30;99.90;;;;;;5078248;28;20429;-59
2021/09/22 13:49:12;;;;;;;1.43;0.80;;;20.50;99.90;;;;;;5088318;28;20715;-60
2021/09/22 13:51:40;;;;;;;1.20;0.80;;;20.30;99.90;;;;;;5094489;28;20455;-58
2021/09/22 13:54:08;;;;;;;2.00;0.70;;;20.30;99.90;;;;;;5094911;28;20493;-60
2021/09/22 13:56:38;;;;;;;1.10;0.80;;;20.40;99.90;;;;;;5094789;28;20430;-62
2021/09/22 13:59:11;;;;;;;0.90;0.63;;;20.40;99.90;;;;;;5091916;28;20422;-60
2021/09/22 14:01:40;;;;;;;1.80;0.70;;;20.40;99.90;;;;;;5091459;28;20425;-60
2021/09/22 14:04:08;;;;;;;1.10;0.77;;;20.10;99.90;;;;;;5093557;28;20717;-61
2021/09/22 14:06:36;;;;;;;1.70;0.70;;;19.70;99.90;;;;;;5093457;28;20839;-61